sensor_id;sensor_type;location;lat;lon;timestamp;temperature;humidity
1546;DHT22;766;51.502;9.752;2023-07-31T00:02:20;15.20;99.90
1546;DHT22;766;51.502;9.752;2023-07-31T00:04:49;15.10;99.90
1546;DHT22;766;51.502;9.752;2023-07-31T00:07:17;15.20;99.90
1546;DHT22;766;51.502;9.752;2023-07-31T00:09:45;15.10;99.90
1546;DHT22;766;51.502;9.752;2023-07-31T00:12:14;15.20;99.90
1546;DHT22;766;51.502;9.752;2023-07-31T00:14:42;15.20;99.90
1546;DHT22;766;51.502;9.752;2023-07-31T00:17:13;15.10;99.90
1546;DHT22;766;51.502;9.752;2023-07-31T00:19:41;15.00;99.90
1546;DHT22;766;51.502;9.752;2023-07-31T00:22:10;15.00;99.90
1546;DHT22;766;51.502;9.752;2023-07-31T00:24:38;15.00;99.90
1546;DHT22;766;51.502;9.752;2023-07-31T00:27:06;14.90;99.90
1546;DHT22;766;51.502;9.752;2023-07-31T00:29:35;14.90;99.90
1546;DHT22;766;51.502;9.752;2023-07-31T00:32:05;14.90;99.90
1546;DHT22;766;51.502;9.752;2023-07-31T00:34:35;14.90;99.90
1546;DHT22;766;51.502;9.752;2023-07-31T00:37:04;14.90;99.90
1546;DHT22;766;51.502;9.752;2023-07-31T00:39:34;15.00;99.90
1546;DHT22;766;51.502;9.752;2023-07-31T00:42:03;15.00;99.90
1546;DHT22;766;51.502;9.752;2023-07-31T00:44:32;15.00;99.90
1546;DHT22;766;51.502;9.752;2023-07-31T00:47:01;15.00;99.90
1546;DHT22;766;51.502;9.752;2023-07-31T00:49:29;14.90;99.90
1546;DHT22;766;51.502;9.752;2023-07-31T00:52:00;15.00;99.90
1546;DHT22;766;51.502;9.752;2023-07-31T00:54:29;14.90;99.90
1546;DHT22;766;51.502;9.752;2023-07-31T00:56:58;14.90;99.90
1546;DHT22;766;51.502;9.752;2023-07-31T00:59:27;14.90;99.90
1546;DHT22;766;51.502;9.752;2023-07-31T01:01:56;14.90;99.90
1546;DHT22;766;51.502;9.752;2023-07-31T01:04:25;14.90;99.90
1546;DHT22;766;51.502;9.752;2023-07-31T01:06:58;14.90;99.90
1546;DHT22;766;51.502;9.752;2023-07-31T01:09:36;14.90;99.90
1546;DHT22;766;51.502;9.752;2023-07-31T01:12:07;14.90;99.90
1546;DHT22;766;51.502;9.752;2023-07-31T01:14:35;14.90;99.90
1546;DHT22;766;51.502;9.752;2023-07-31T01:17:04;14.90;99.90
1546;DHT22;766;51.502;9.752;2023-07-31T01:19:33;14.90;99.90
1546;DHT22;766;51.502;9.752;2023-07-31T01:22:22;14.90;99.90
1546;DHT22;766;51.502;9.752;2023-07-31T01:25:00;14.90;99.90
1546;DHT22;766;51.502;9.752;2023-07-31T01:27:40;15.00;99.90
1546;DHT22;766;51.502;9.752;2023-07-31T01:30:16;15.00;99.90
1546;DHT22;766;51.502;9.752;2023-07-31T01:32:48;15.10;99.90
1546;DHT22;766;51.502;9.752;2023-07-31T01:35:17;15.00;99.90
1546;DHT22;766;51.502;9.752;2023-07-31T01:37:45;15.00;99.90
1546;DHT22;766;51.502;9.752;2023-07-31T01:40:14;15.00;99.90
1546;DHT22;766;51.502;9.752;2023-07-31T01:42:44;15.00;99.90
1546;DHT22;766;51.502;9.752;2023-07-31T01:45:12;15.10;99.90
1546;DHT22;766;51.502;9.752;2023-07-31T01:47:41;15.10;99.90
1546;DHT22;766;51.502;9.752;2023-07-31T01:50:10;15.10;99.90
1546;DHT22;766;51.502;9.752;2023-07-31T01:52:38;15.20;99.90
1546;DHT22;766;51.502;9.752;2023-07-31T01:55:07;15.20;99.90
1546;DHT22;766;51.502;9.752;2023-07-31T01:57:37;15.20;99.90
1546;DHT22;766;51.502;9.752;2023-07-31T02:00:08;15.20;99.90
1546;DHT22;766;51.502;9.752;2023-07-31T02:02:36;15.20;99.90
1546;DHT22;766;51.502;9.752;2023-07-31T02:05:08;15.20;99.90
1546;DHT22;766;51.502;9.752;2023-07-31T02:07:36;15.20;99.90
1546;DHT22;766;51.502;9.752;2023-07-31T02:10:05;15.30;99.90
1546;DHT22;766;51.502;9.752;2023-07-31T02:12:34;15.20;99.90
1546;DHT22;766;51.502;9.752;2023-07-31T02:15:05;15.30;99.90
1546;DHT22;766;51.502;9.752;2023-07-31T02:17:35;15.30;99.90
1546;DHT22;766;51.502;9.752;2023-07-31T02:20:04;15.30;99.90
1546;DHT22;766;51.502;9.752;2023-07-31T02:22:33;15.30;99.90
1546;DHT22;766;51.502;9.752;2023-07-31T02:25:01;15.30;99.90
1546;DHT22;766;51.502;9.752;2023-07-31T02:27:29;15.40;99.90
1546;DHT22;766;51.502;9.752;2023-07-31T02:29:58;15.30;99.90
1546;DHT22;766;51.502;9.752;2023-07-31T02:32:27;15.30;99.90
1546;DHT22;766;51.502;9.752;2023-07-31T02:34:57;15.30;99.90
1546;DHT22;766;51.502;9.752;2023-07-31T02:37:26;15.20;99.90
1546;DHT22;766;51.502;9.752;2023-07-31T02:39:55;15.20;99.90
1546;DHT22;766;51.502;9.752;2023-07-31T02:42:24;15.20;99.90
1546;DHT22;766;51.502;9.752;2023-07-31T02:44:53;15.10;99.90
1546;DHT22;766;51.502;9.752;2023-07-31T02:47:23;15.10;99.90
1546;DHT22;766;51.502;9.752;2023-07-31T02:49:52;15.00;99.90
1546;DHT22;766;51.502;9.752;2023-07-31T02:52:22;15.00;99.90
1546;DHT22;766;51.502;9.752;2023-07-31T02:54:50;15.00;99.90
1546;DHT22;766;51.502;9.752;2023-07-31T02:57:19;15.00;99.90
1546;DHT22;766;51.502;9.752;2023-07-31T02:59:48;15.00;99.90
1546;DHT22;766;51.502;9.752;2023-07-31T03:02:17;15.00;99.90
1546;DHT22;766;51.502;9.752;2023-07-31T03:04:45;15.00;99.90
1546;DHT22;766;51.502;9.752;2023-07-31T03:07:14;15.10;99.90
1546;DHT22;766;51.502;9.752;2023-07-31T03:09:43;15.10;99.90
1546;DHT22;766;51.502;9.752;2023-07-31T03:12:12;15.10;99.90
1546;DHT22;766;51.502;9.752;2023-07-31T03:14:40;15.10;99.90
1546;DHT22;766;51.502;9.752;2023-07-31T03:17:09;15.10;99.90
1546;DHT22;766;51.502;9.752;2023-07-31T03:19:38;15.20;99.90
1546;DHT22;766;51.502;9.752;2023-07-31T03:22:06;15.20;99.90
1546;DHT22;766;51.502;9.752;2023-07-31T03:24:35;15.20;99.90
1546;DHT22;766;51.502;9.752;2023-07-31T03:27:06;15.10;99.90
1546;DHT22;766;51.502;9.752;2023-07-31T03:29:34;15.10;99.90
1546;DHT22;766;51.502;9.752;2023-07-31T03:32:03;15.10;99.90
1546;DHT22;766;51.502;9.752;2023-07-31T03:34:32;15.10;99.90
1546;DHT22;766;51.502;9.752;2023-07-31T03:37:01;15.10;99.90
1546;DHT22;766;51.502;9.752;2023-07-31T03:39:29;15.10;99.90
1546;DHT22;766;51.502;9.752;2023-07-31T03:42:01;15.10;99.90
1546;DHT22;766;51.502;9.752;2023-07-31T03:44:30;15.20;99.90
1546;DHT22;766;51.502;9.752;2023-07-31T03:46:59;15.20;99.90
1546;DHT22;766;51.502;9.752;2023-07-31T03:49:27;15.20;99.90
1546;DHT22;766;51.502;9.752;2023-07-31T03:51:56;15.20;99.90
1546;DHT22;766;51.502;9.752;2023-07-31T03:54:26;15.20;99.90
1546;DHT22;766;51.502;9.752;2023-07-31T03:56:55;15.20;99.90
1546;DHT22;766;51.502;9.752;2023-07-31T03:59:23;15.20;99.90
1546;DHT22;766;51.502;9.752;2023-07-31T04:01:53;15.30;99.90
1546;DHT22;766;51.502;9.752;2023-07-31T04:04:21;15.30;99.90
1546;DHT22;766;51.502;9.752;2023-07-31T04:06:49;15.30;99.90
1546;DHT22;766;51.502;9.752;2023-07-31T04:09:19;15.30;99.90
1546;DHT22;766;51.502;9.752;2023-07-31T04:11:51;15.30;99.90
1546;DHT22;766;51.502;9.752;2023-07-31T04:14:19;15.30;99.90
1546;DHT22;766;51.502;9.752;2023-07-31T04:16:48;15.30;99.90
1546;DHT22;766;51.502;9.752;2023-07-31T04:19:19;15.30;99.90
1546;DHT22;766;51.502;9.752;2023-07-31T04:21:47;15.30;99.90
1546;DHT22;766;51.502;9.752;2023-07-31T04:24:17;15.40;99.90
1546;DHT22;766;51.502;9.752;2023-07-31T04:26:54;15.40;99.90
1546;DHT22;766;51.502;9.752;2023-07-31T04:29:22;15.40;99.90
1546;DHT22;766;51.502;9.752;2023-07-31T04:31:51;15.40;99.90
1546;DHT22;766;51.502;9.752;2023-07-31T04:34:20;15.40;99.90
1546;DHT22;766;51.502;9.752;2023-07-31T04:36:49;15.40;99.90
1546;DHT22;766;51.502;9.752;2023-07-31T04:39:18;15.50;99.90
1546;DHT22;766;51.502;9.752;2023-07-31T04:41:49;15.50;99.90
1546;DHT22;766;51.502;9.752;2023-07-31T04:44:17;15.50;99.90
1546;DHT22;766;51.502;9.752;2023-07-31T04:46:46;15.50;99.90
1546;DHT22;766;51.502;9.752;2023-07-31T04:49:14;15.60;99.90
1546;DHT22;766;51.502;9.752;2023-07-31T04:51:44;15.60;99.90
1546;DHT22;766;51.502;9.752;2023-07-31T04:54:13;15.50;99.90
1546;DHT22;766;51.502;9.752;2023-07-31T04:56:42;15.60;99.90
1546;DHT22;766;51.502;9.752;2023-07-31T04:59:10;15.60;99.90
1546;DHT22;766;51.502;9.752;2023-07-31T05:01:39;15.60;99.90
1546;DHT22;766;51.502;9.752;2023-07-31T05:04:12;15.70;99.90
1546;DHT22;766;51.502;9.752;2023-07-31T05:06:40;15.70;99.90
1546;DHT22;766;51.502;9.752;2023-07-31T05:09:10;15.70;99.90
1546;DHT22;766;51.502;9.752;2023-07-31T05:11:39;15.70;99.90
1546;DHT22;766;51.502;9.752;2023-07-31T05:14:10;15.80;99.90
1546;DHT22;766;51.502;9.752;2023-07-31T05:16:38;15.80;99.90
1546;DHT22;766;51.502;9.752;2023-07-31T05:19:07;15.80;99.90
1546;DHT22;766;51.502;9.752;2023-07-31T05:21:36;15.80;99.90
1546;DHT22;766;51.502;9.752;2023-07-31T05:24:07;15.80;99.90
1546;DHT22;766;51.502;9.752;2023-07-31T05:26:39;15.80;99.90
1546;DHT22;766;51.502;9.752;2023-07-31T05:29:08;15.80;99.90
1546;DHT22;766;51.502;9.752;2023-07-31T05:31:37;15.80;99.90
1546;DHT22;766;51.502;9.752;2023-07-31T05:34:05;15.80;99.90
1546;DHT22;766;51.502;9.752;2023-07-31T05:36:34;15.80;99.90
1546;DHT22;766;51.502;9.752;2023-07-31T05:39:02;15.90;99.90
1546;DHT22;766;51.502;9.752;2023-07-31T05:41:34;15.80;99.90
1546;DHT22;766;51.502;9.752;2023-07-31T05:44:05;15.90;99.90
1546;DHT22;766;51.502;9.752;2023-07-31T05:46:35;15.90;99.90
1546;DHT22;766;51.502;9.752;2023-07-31T05:49:05;15.90;99.90
1546;DHT22;766;51.502;9.752;2023-07-31T05:51:36;15.90;99.90
1546;DHT22;766;51.502;9.752;2023-07-31T05:54:04;15.90;99.90
1546;DHT22;766;51.502;9.752;2023-07-31T05:56:33;15.90;99.90
1546;DHT22;766;51.502;9.752;2023-07-31T05:59:05;16.00;99.90
1546;DHT22;766;51.502;9.752;2023-07-31T06:01:34;16.00;99.90
1546;DHT22;766;51.502;9.752;2023-07-31T06:04:02;16.00;99.90
1546;DHT22;766;51.502;9.752;2023-07-31T06:06:31;16.00;99.90
1546;DHT22;766;51.502;9.752;2023-07-31T06:08:59;15.90;99.90
1546;DHT22;766;51.502;9.752;2023-07-31T06:11:28;15.90;99.90
1546;DHT22;766;51.502;9.752;2023-07-31T06:13:56;16.00;99.90
1546;DHT22;766;51.502;9.752;2023-07-31T06:16:26;16.10;99.90
1546;DHT22;766;51.502;9.752;2023-07-31T06:18:55;16.20;99.90
1546;DHT22;766;51.502;9.752;2023-07-31T06:21:23;16.20;99.90
1546;DHT22;766;51.502;9.752;2023-07-31T06:23:51;16.30;99.90
1546;DHT22;766;51.502;9.752;2023-07-31T06:26:20;16.30;99.90
1546;DHT22;766;51.502;9.752;2023-07-31T06:28:48;16.30;99.90
1546;DHT22;766;51.502;9.752;2023-07-31T06:31:17;16.30;99.90
1546;DHT22;766;51.502;9.752;2023-07-31T06:33:49;16.30;99.90
1546;DHT22;766;51.502;9.752;2023-07-31T06:36:18;16.30;99.90
1546;DHT22;766;51.502;9.752;2023-07-31T06:38:46;16.30;99.90
1546;DHT22;766;51.502;9.752;2023-07-31T06:41:15;16.20;99.90
1546;DHT22;766;51.502;9.752;2023-07-31T06:43:43;16.20;99.90
1546;DHT22;766;51.502;9.752;2023-07-31T06:46:12;16.20;99.90
1546;DHT22;766;51.502;9.752;2023-07-31T06:48:40;16.20;99.90
1546;DHT22;766;51.502;9.752;2023-07-31T06:51:10;16.20;99.90
1546;DHT22;766;51.502;9.752;2023-07-31T06:53:39;16.20;99.90
1546;DHT22;766;51.502;9.752;2023-07-31T06:56:08;16.30;99.90
1546;DHT22;766;51.502;9.752;2023-07-31T06:58:36;16.30;99.90
1546;DHT22;766;51.502;9.752;2023-07-31T07:01:05;16.30;99.90
1546;DHT22;766;51.502;9.752;2023-07-31T07:03:33;16.30;99.90
1546;DHT22;766;51.502;9.752;2023-07-31T07:06:01;16.20;99.90
1546;DHT22;766;51.502;9.752;2023-07-31T07:08:31;16.20;99.90
1546;DHT22;766;51.502;9.752;2023-07-31T07:10:59;16.10;99.90
1546;DHT22;766;51.502;9.752;2023-07-31T07:13:28;16.10;99.90
1546;DHT22;766;51.502;9.752;2023-07-31T07:15:56;16.10;99.90
1546;DHT22;766;51.502;9.752;2023-07-31T07:18:28;16.10;99.90
1546;DHT22;766;51.502;9.752;2023-07-31T07:20:58;16.10;99.90
1546;DHT22;766;51.502;9.752;2023-07-31T07:23:28;16.00;99.90
1546;DHT22;766;51.502;9.752;2023-07-31T07:25:58;16.10;99.90
1546;DHT22;766;51.502;9.752;2023-07-31T07:28:30;15.90;99.90
1546;DHT22;766;51.502;9.752;2023-07-31T07:30:58;15.90;99.90
1546;DHT22;766;51.502;9.752;2023-07-31T07:33:27;15.80;99.90
1546;DHT22;766;51.502;9.752;2023-07-31T07:35:55;15.70;99.90
1546;DHT22;766;51.502;9.752;2023-07-31T07:38:27;15.60;99.90
1546;DHT22;766;51.502;9.752;2023-07-31T07:40:56;15.70;99.90
1546;DHT22;766;51.502;9.752;2023-07-31T07:43:25;15.60;99.90
1546;DHT22;766;51.502;9.752;2023-07-31T07:45:54;15.50;99.90
1546;DHT22;766;51.502;9.752;2023-07-31T07:48:22;15.40;99.90
1546;DHT22;766;51.502;9.752;2023-07-31T07:50:52;15.30;99.90
1546;DHT22;766;51.502;9.752;2023-07-31T07:53:20;15.40;99.90
1546;DHT22;766;51.502;9.752;2023-07-31T07:55:48;15.40;99.90
1546;DHT22;766;51.502;9.752;2023-07-31T07:58:17;15.40;99.90
1546;DHT22;766;51.502;9.752;2023-07-31T08:00:50;15.50;99.90
1546;DHT22;766;51.502;9.752;2023-07-31T08:03:19;15.40;99.90
1546;DHT22;766;51.502;9.752;2023-07-31T08:05:47;15.50;99.90
1546;DHT22;766;51.502;9.752;2023-07-31T08:08:16;15.50;99.90
1546;DHT22;766;51.502;9.752;2023-07-31T08:10:45;15.40;99.90
1546;DHT22;766;51.502;9.752;2023-07-31T08:13:13;15.40;99.90
1546;DHT22;766;51.502;9.752;2023-07-31T08:15:42;15.50;99.90
1546;DHT22;766;51.502;9.752;2023-07-31T08:18:12;15.60;99.90
1546;DHT22;766;51.502;9.752;2023-07-31T08:20:40;15.90;99.90
1546;DHT22;766;51.502;9.752;2023-07-31T08:23:09;16.10;99.90
1546;DHT22;766;51.502;9.752;2023-07-31T08:25:38;16.10;99.90
1546;DHT22;766;51.502;9.752;2023-07-31T08:28:07;16.20;99.90
1546;DHT22;766;51.502;9.752;2023-07-31T08:30:35;16.30;99.90
1546;DHT22;766;51.502;9.752;2023-07-31T08:33:03;16.40;99.90
1546;DHT22;766;51.502;9.752;2023-07-31T08:35:33;16.40;99.90
1546;DHT22;766;51.502;9.752;2023-07-31T08:38:01;16.40;99.90
1546;DHT22;766;51.502;9.752;2023-07-31T08:40:30;16.30;99.90
1546;DHT22;766;51.502;9.752;2023-07-31T08:42:59;16.20;99.90
1546;DHT22;766;51.502;9.752;2023-07-31T08:45:30;16.10;99.90
1546;DHT22;766;51.502;9.752;2023-07-31T08:47:59;16.20;99.90
1546;DHT22;766;51.502;9.752;2023-07-31T08:50:30;16.20;99.90
1546;DHT22;766;51.502;9.752;2023-07-31T08:53:00;16.30;99.90
1546;DHT22;766;51.502;9.752;2023-07-31T08:55:29;16.30;99.90
1546;DHT22;766;51.502;9.752;2023-07-31T08:57:57;16.30;99.90
1546;DHT22;766;51.502;9.752;2023-07-31T09:00:27;16.30;99.90
1546;DHT22;766;51.502;9.752;2023-07-31T09:02:59;16.40;99.90
1546;DHT22;766;51.502;9.752;2023-07-31T09:05:30;16.50;99.90
1546;DHT22;766;51.502;9.752;2023-07-31T09:08:02;16.50;99.90
1546;DHT22;766;51.502;9.752;2023-07-31T09:10:32;16.60;99.90
1546;DHT22;766;51.502;9.752;2023-07-31T09:13:01;16.60;99.90
1546;DHT22;766;51.502;9.752;2023-07-31T09:15:30;16.70;99.90
1546;DHT22;766;51.502;9.752;2023-07-31T09:18:06;16.70;99.90
1546;DHT22;766;51.502;9.752;2023-07-31T09:20:35;16.60;99.90
1546;DHT22;766;51.502;9.752;2023-07-31T09:23:07;16.70;99.90
1546;DHT22;766;51.502;9.752;2023-07-31T09:25:37;16.80;99.90
1546;DHT22;766;51.502;9.752;2023-07-31T09:28:07;16.80;99.90
1546;DHT22;766;51.502;9.752;2023-07-31T09:30:46;16.90;99.90
1546;DHT22;766;51.502;9.752;2023-07-31T09:33:16;16.80;99.90
1546;DHT22;766;51.502;9.752;2023-07-31T09:35:44;16.80;99.90
1546;DHT22;766;51.502;9.752;2023-07-31T09:38:15;16.90;99.90
1546;DHT22;766;51.502;9.752;2023-07-31T09:40:45;16.90;99.90
1546;DHT22;766;51.502;9.752;2023-07-31T09:43:18;16.90;99.90
1546;DHT22;766;51.502;9.752;2023-07-31T09:45:47;17.00;99.90
1546;DHT22;766;51.502;9.752;2023-07-31T09:48:18;17.00;99.90
1546;DHT22;766;51.502;9.752;2023-07-31T09:50:48;17.30;99.90
1546;DHT22;766;51.502;9.752;2023-07-31T09:53:18;17.40;99.90
1546;DHT22;766;51.502;9.752;2023-07-31T09:55:47;17.40;99.90
1546;DHT22;766;51.502;9.752;2023-07-31T09:58:15;17.30;99.90
1546;DHT22;766;51.502;9.752;2023-07-31T10:00:45;17.40;99.90
1546;DHT22;766;51.502;9.752;2023-07-31T10:03:15;17.50;99.90
1546;DHT22;766;51.502;9.752;2023-07-31T10:05:49;17.60;99.90
1546;DHT22;766;51.502;9.752;2023-07-31T10:08:23;17.90;99.90
1546;DHT22;766;51.502;9.752;2023-07-31T10:10:58;18.10;99.90
1546;DHT22;766;51.502;9.752;2023-07-31T10:13:28;18.20;99.90
1546;DHT22;766;51.502;9.752;2023-07-31T10:15:59;18.40;99.90
1546;DHT22;766;51.502;9.752;2023-07-31T10:18:28;18.60;99.90
1546;DHT22;766;51.502;9.752;2023-07-31T10:20:57;19.00;99.90
1546;DHT22;766;51.502;9.752;2023-07-31T10:23:27;20.20;99.90
1546;DHT22;766;51.502;9.752;2023-07-31T10:25:57;20.50;99.90
1546;DHT22;766;51.502;9.752;2023-07-31T10:28:27;20.00;99.90
1546;DHT22;766;51.502;9.752;2023-07-31T10:30:57;19.80;99.90
1546;DHT22;766;51.502;9.752;2023-07-31T10:33:26;19.30;99.90
1546;DHT22;766;51.502;9.752;2023-07-31T10:36:12;18.90;99.90
1546;DHT22;766;51.502;9.752;2023-07-31T10:38:42;18.60;99.90
1546;DHT22;766;51.502;9.752;2023-07-31T10:41:13;18.40;99.90
1546;DHT22;766;51.502;9.752;2023-07-31T10:43:42;18.40;99.90
1546;DHT22;766;51.502;9.752;2023-07-31T10:46:12;18.50;99.90
1546;DHT22;766;51.502;9.752;2023-07-31T10:48:41;18.40;99.90
1546;DHT22;766;51.502;9.752;2023-07-31T10:51:11;18.20;99.90
1546;DHT22;766;51.502;9.752;2023-07-31T10:53:41;18.30;99.90
1546;DHT22;766;51.502;9.752;2023-07-31T10:56:10;18.40;99.90
1546;DHT22;766;51.502;9.752;2023-07-31T10:58:44;18.50;99.90
1546;DHT22;766;51.502;9.752;2023-07-31T11:01:13;18.50;99.90
1546;DHT22;766;51.502;9.752;2023-07-31T11:03:42;18.30;99.90
1546;DHT22;766;51.502;9.752;2023-07-31T11:06:12;18.30;99.90
1546;DHT22;766;51.502;9.752;2023-07-31T11:08:47;18.30;99.90
1546;DHT22;766;51.502;9.752;2023-07-31T11:11:17;18.20;99.90
1546;DHT22;766;51.502;9.752;2023-07-31T11:13:46;18.00;99.90
1546;DHT22;766;51.502;9.752;2023-07-31T11:16:17;18.00;99.90
1546;DHT22;766;51.502;9.752;2023-07-31T11:18:47;18.00;99.90
1546;DHT22;766;51.502;9.752;2023-07-31T11:21:17;18.10;99.90
1546;DHT22;766;51.502;9.752;2023-07-31T11:24:00;18.10;99.90
1546;DHT22;766;51.502;9.752;2023-07-31T11:26:29;18.10;99.90
1546;DHT22;766;51.502;9.752;2023-07-31T11:28:58;17.90;99.90
1546;DHT22;766;51.502;9.752;2023-07-31T11:31:27;17.90;99.90
1546;DHT22;766;51.502;9.752;2023-07-31T11:34:06;18.00;99.90
1546;DHT22;766;51.502;9.752;2023-07-31T11:36:35;17.90;99.90
1546;DHT22;766;51.502;9.752;2023-07-31T11:39:09;17.80;99.90
1546;DHT22;766;51.502;9.752;2023-07-31T11:41:43;17.60;99.90
1546;DHT22;766;51.502;9.752;2023-07-31T11:44:12;17.40;99.90
1546;DHT22;766;51.502;9.752;2023-07-31T11:46:57;17.20;99.90
1546;DHT22;766;51.502;9.752;2023-07-31T11:49:27;17.20;99.90
1546;DHT22;766;51.502;9.752;2023-07-31T11:52:03;17.20;99.90
1546;DHT22;766;51.502;9.752;2023-07-31T11:54:33;17.20;99.90
1546;DHT22;766;51.502;9.752;2023-07-31T11:57:02;17.40;99.90
1546;DHT22;766;51.502;9.752;2023-07-31T11:59:32;17.50;99.90
1546;DHT22;766;51.502;9.752;2023-07-31T12:02:00;17.60;99.90
1546;DHT22;766;51.502;9.752;2023-07-31T12:04:29;17.70;99.90
1546;DHT22;766;51.502;9.752;2023-07-31T12:07:00;17.80;99.90
1546;DHT22;766;51.502;9.752;2023-07-31T12:09:28;17.80;99.90
1546;DHT22;766;51.502;9.752;2023-07-31T12:11:58;17.60;99.90
1546;DHT22;766;51.502;9.752;2023-07-31T12:14:27;17.40;99.90
1546;DHT22;766;51.502;9.752;2023-07-31T12:16:57;17.50;99.90
1546;DHT22;766;51.502;9.752;2023-07-31T12:19:26;17.40;99.90
1546;DHT22;766;51.502;9.752;2023-07-31T12:22:00;17.30;99.90
1546;DHT22;766;51.502;9.752;2023-07-31T12:24:35;17.20;99.90
1546;DHT22;766;51.502;9.752;2023-07-31T12:27:10;17.20;99.90
1546;DHT22;766;51.502;9.752;2023-07-31T12:29:46;17.10;99.90
1546;DHT22;766;51.502;9.752;2023-07-31T12:32:35;16.90;99.90
1546;DHT22;766;51.502;9.752;2023-07-31T12:35:13;16.80;99.90
1546;DHT22;766;51.502;9.752;2023-07-31T12:37:48;16.80;99.90
1546;DHT22;766;51.502;9.752;2023-07-31T12:40:17;16.70;99.90
1546;DHT22;766;51.502;9.752;2023-07-31T12:42:54;16.70;99.90
1546;DHT22;766;51.502;9.752;2023-07-31T12:45:23;16.80;99.90
1546;DHT22;766;51.502;9.752;2023-07-31T12:47:51;16.90;99.90
1546;DHT22;766;51.502;9.752;2023-07-31T12:50:22;16.90;99.90
1546;DHT22;766;51.502;9.752;2023-07-31T12:52:57;16.90;99.90
1546;DHT22;766;51.502;9.752;2023-07-31T12:55:26;16.90;99.90
1546;DHT22;766;51.502;9.752;2023-07-31T12:57:56;16.90;99.90
1546;DHT22;766;51.502;9.752;2023-07-31T13:00:25;16.80;99.90
1546;DHT22;766;51.502;9.752;2023-07-31T13:02:53;16.70;99.90
1546;DHT22;766;51.502;9.752;2023-07-31T13:05:26;16.70;99.90
1546;DHT22;766;51.502;9.752;2023-07-31T13:08:27;16.80;99.90
1546;DHT22;766;51.502;9.752;2023-07-31T13:10:55;16.80;99.90
1546;DHT22;766;51.502;9.752;2023-07-31T13:13:25;16.70;99.90
1546;DHT22;766;51.502;9.752;2023-07-31T13:15:55;16.70;99.90
1546;DHT22;766;51.502;9.752;2023-07-31T13:18:24;16.60;99.90
1546;DHT22;766;51.502;9.752;2023-07-31T13:20:52;16.50;99.90
1546;DHT22;766;51.502;9.752;2023-07-31T13:23:22;16.50;99.90
1546;DHT22;766;51.502;9.752;2023-07-31T13:25:52;16.60;99.90
1546;DHT22;766;51.502;9.752;2023-07-31T13:28:20;16.70;99.90
1546;DHT22;766;51.502;9.752;2023-07-31T13:30:50;16.70;99.90
1546;DHT22;766;51.502;9.752;2023-07-31T13:33:18;16.70;99.90
1546;DHT22;766;51.502;9.752;2023-07-31T13:36:03;16.70;99.90
1546;DHT22;766;51.502;9.752;2023-07-31T13:38:31;16.80;99.90
1546;DHT22;766;51.502;9.752;2023-07-31T13:41:00;16.80;99.90
1546;DHT22;766;51.502;9.752;2023-07-31T13:43:28;16.90;99.90
1546;DHT22;766;51.502;9.752;2023-07-31T13:45:58;17.00;99.90
1546;DHT22;766;51.502;9.752;2023-07-31T13:48:31;17.10;99.90
1546;DHT22;766;51.502;9.752;2023-07-31T13:50:59;17.20;99.90
1546;DHT22;766;51.502;9.752;2023-07-31T13:53:28;17.20;99.90
1546;DHT22;766;51.502;9.752;2023-07-31T13:55:56;17.20;99.90
1546;DHT22;766;51.502;9.752;2023-07-31T13:58:24;17.30;99.90
1546;DHT22;766;51.502;9.752;2023-07-31T14:00:54;17.40;99.90
1546;DHT22;766;51.502;9.752;2023-07-31T14:03:24;17.30;99.90
1546;DHT22;766;51.502;9.752;2023-07-31T14:05:52;17.30;99.90
1546;DHT22;766;51.502;9.752;2023-07-31T14:08:20;17.40;99.90
1546;DHT22;766;51.502;9.752;2023-07-31T14:10:49;17.40;99.90
1546;DHT22;766;51.502;9.752;2023-07-31T14:13:17;17.50;99.90
1546;DHT22;766;51.502;9.752;2023-07-31T14:15:45;17.80;99.90
1546;DHT22;766;51.502;9.752;2023-07-31T14:18:14;17.90;99.90
1546;DHT22;766;51.502;9.752;2023-07-31T14:20:44;18.10;99.90
1546;DHT22;766;51.502;9.752;2023-07-31T14:23:12;18.10;99.90
1546;DHT22;766;51.502;9.752;2023-07-31T14:25:42;18.20;99.90
1546;DHT22;766;51.502;9.752;2023-07-31T14:28:10;18.30;99.90
1546;DHT22;766;51.502;9.752;2023-07-31T14:30:39;18.30;99.90
1546;DHT22;766;51.502;9.752;2023-07-31T14:33:08;18.30;99.90
1546;DHT22;766;51.502;9.752;2023-07-31T14:35:36;18.20;99.90
1546;DHT22;766;51.502;9.752;2023-07-31T14:38:06;18.20;99.90
1546;DHT22;766;51.502;9.752;2023-07-31T14:40:34;18.10;99.90
1546;DHT22;766;51.502;9.752;2023-07-31T14:43:03;18.10;99.90
1546;DHT22;766;51.502;9.752;2023-07-31T14:45:32;18.10;99.90
1546;DHT22;766;51.502;9.752;2023-07-31T14:48:00;18.00;99.90
1546;DHT22;766;51.502;9.752;2023-07-31T14:50:29;18.00;99.90
1546;DHT22;766;51.502;9.752;2023-07-31T14:52:58;18.00;99.90
1546;DHT22;766;51.502;9.752;2023-07-31T14:55:28;18.00;99.90
1546;DHT22;766;51.502;9.752;2023-07-31T14:57:56;17.90;99.90
1546;DHT22;766;51.502;9.752;2023-07-31T15:00:25;18.00;99.90
1546;DHT22;766;51.502;9.752;2023-07-31T15:02:53;18.00;99.90
1546;DHT22;766;51.502;9.752;2023-07-31T15:05:22;18.00;99.90
1546;DHT22;766;51.502;9.752;2023-07-31T15:07:50;18.00;99.90
1546;DHT22;766;51.502;9.752;2023-07-31T15:10:19;17.90;99.90
1546;DHT22;766;51.502;9.752;2023-07-31T15:18:15;18.00;99.90
1546;DHT22;766;51.502;9.752;2023-07-31T15:20:43;18.00;99.90
1546;DHT22;766;51.502;9.752;2023-07-31T15:23:11;18.10;99.90
1546;DHT22;766;51.502;9.752;2023-07-31T15:25:43;18.10;99.90
1546;DHT22;766;51.502;9.752;2023-07-31T15:28:15;18.10;99.90
1546;DHT22;766;51.502;9.752;2023-07-31T15:30:48;18.10;99.90
1546;DHT22;766;51.502;9.752;2023-07-31T15:33:22;18.10;99.90
1546;DHT22;766;51.502;9.752;2023-07-31T15:35:50;18.10;99.90
1546;DHT22;766;51.502;9.752;2023-07-31T15:38:22;18.00;99.90
1546;DHT22;766;51.502;9.752;2023-07-31T15:40:52;18.10;99.90
1546;DHT22;766;51.502;9.752;2023-07-31T15:43:21;18.10;99.90
1546;DHT22;766;51.502;9.752;2023-07-31T15:45:54;18.10;99.90
1546;DHT22;766;51.502;9.752;2023-07-31T15:48:24;18.10;99.90
1546;DHT22;766;51.502;9.752;2023-07-31T15:50:54;18.10;99.90
1546;DHT22;766;51.502;9.752;2023-07-31T15:53:23;18.10;99.90
1546;DHT22;766;51.502;9.752;2023-07-31T15:55:52;18.20;99.90
1546;DHT22;766;51.502;9.752;2023-07-31T15:58:20;18.20;99.90
1546;DHT22;766;51.502;9.752;2023-07-31T16:00:49;18.30;99.90
1546;DHT22;766;51.502;9.752;2023-07-31T16:03:19;18.30;99.90
1546;DHT22;766;51.502;9.752;2023-07-31T16:05:53;18.40;99.90
1546;DHT22;766;51.502;9.752;2023-07-31T16:08:21;18.40;99.90
1546;DHT22;766;51.502;9.752;2023-07-31T16:10:53;18.30;99.90
1546;DHT22;766;51.502;9.752;2023-07-31T16:13:23;18.30;99.90
1546;DHT22;766;51.502;9.752;2023-07-31T16:15:55;18.30;99.90
1546;DHT22;766;51.502;9.752;2023-07-31T16:18:23;18.20;99.90
1546;DHT22;766;51.502;9.752;2023-07-31T16:21:00;18.30;99.90
1546;DHT22;766;51.502;9.752;2023-07-31T16:23:31;18.40;99.90
1546;DHT22;766;51.502;9.752;2023-07-31T16:26:02;18.40;99.90
1546;DHT22;766;51.502;9.752;2023-07-31T16:28:39;18.40;99.90
1546;DHT22;766;51.502;9.752;2023-07-31T16:31:09;18.40;99.90
1546;DHT22;766;51.502;9.752;2023-07-31T16:33:37;18.40;99.90
1546;DHT22;766;51.502;9.752;2023-07-31T16:36:08;18.40;99.90
1546;DHT22;766;51.502;9.752;2023-07-31T16:38:37;18.40;99.90
1546;DHT22;766;51.502;9.752;2023-07-31T16:41:06;18.40;99.90